sensor_id;sensor_type;location;lat;lon;timestamp;pressure;altitude;pressure_sealevel;temperature
73734;BMP280;62039;50.000;9.064;2022-07-29T00:02:24;100145.41;;;21.53
73734;BMP280;62039;50.000;9.064;2022-07-29T00:04:52;100146.00;;;21.56
73734;BMP280;62039;50.000;9.064;2022-07-29T00:07:19;100134.06;;;21.58
73734;BMP280;62039;50.000;9.064;2022-07-29T00:09:46;100127.00;;;21.64
73734;BMP280;62039;50.000;9.064;2022-07-29T00:12:18;100124.91;;;21.66
73734;BMP280;62039;50.000;9.064;2022-07-29T00:14:51;100127.09;;;21.69
73734;BMP280;62039;50.000;9.064;2022-07-29T00:17:18;100132.75;;;21.72
73734;BMP280;62039;50.000;9.064;2022-07-29T00:19:45;100128.22;;;21.73
73734;BMP280;62039;50.000;9.064;2022-07-29T00:22:12;100129.63;;;21.75
73734;BMP280;62039;50.000;9.064;2022-07-29T00:24:39;100130.16;;;21.77
73734;BMP280;62039;50.000;9.064;2022-07-29T00:27:06;100129.38;;;21.77
73734;BMP280;62039;50.000;9.064;2022-07-29T00:29:32;100138.41;;;21.76
73734;BMP280;62039;50.000;9.064;2022-07-29T00:32:00;100142.09;;;21.75
73734;BMP280;62039;50.000;9.064;2022-07-29T00:34:27;100134.94;;;21.75
73734;BMP280;62039;50.000;9.064;2022-07-29T00:36:53;100139.75;;;21.78
73734;BMP280;62039;50.000;9.064;2022-07-29T00:39:21;100136.63;;;21.81
73734;BMP280;62039;50.000;9.064;2022-07-29T00:41:48;100132.13;;;21.82
73734;BMP280;62039;50.000;9.064;2022-07-29T00:44:15;100131.63;;;21.85
73734;BMP280;62039;50.000;9.064;2022-07-29T00:46:42;100131.16;;;21.88
73734;BMP280;62039;50.000;9.064;2022-07-29T00:49:09;100138.44;;;21.92
73734;BMP280;62039;50.000;9.064;2022-07-29T00:51:36;100143.84;;;21.98
73734;BMP280;62039;50.000;9.064;2022-07-29T00:54:04;100137.25;;;22.00
73734;BMP280;62039;50.000;9.064;2022-07-29T00:56:32;100138.38;;;22.04
73734;BMP280;62039;50.000;9.064;2022-07-29T00:58:59;100138.94;;;22.06
73734;BMP280;62039;50.000;9.064;2022-07-29T01:01:26;100147.50;;;22.08
73734;BMP280;62039;50.000;9.064;2022-07-29T01:03:53;100145.41;;;22.10
73734;BMP280;62039;50.000;9.064;2022-07-29T01:06:20;100142.50;;;22.12
73734;BMP280;62039;50.000;9.064;2022-07-29T01:08:47;100149.44;;;22.13
73734;BMP280;62039;50.000;9.064;2022-07-29T01:11:15;100151.84;;;22.14
73734;BMP280;62039;50.000;9.064;2022-07-29T01:13:44;100142.84;;;22.15
73734;BMP280;62039;50.000;9.064;2022-07-29T01:16:16;100155.91;;;22.17
73734;BMP280;62039;50.000;9.064;2022-07-29T01:18:46;100154.28;;;22.16
73734;BMP280;62039;50.000;9.064;2022-07-29T01:21:24;100156.69;;;22.17
73734;BMP280;62039;50.000;9.064;2022-07-29T01:24:10;100167.31;;;22.17
73734;BMP280;62039;50.000;9.064;2022-07-29T01:26:42;100174.53;;;22.17
73734;BMP280;62039;50.000;9.064;2022-07-29T01:29:16;100172.63;;;22.17
73734;BMP280;62039;50.000;9.064;2022-07-29T01:31:48;100165.72;;;22.16
73734;BMP280;62039;50.000;9.064;2022-07-29T01:34:30;100173.94;;;22.15
73734;BMP280;62039;50.000;9.064;2022-07-29T01:37:05;100166.44;;;22.12
73734;BMP280;62039;50.000;9.064;2022-07-29T01:39:35;100169.34;;;22.10
73734;BMP280;62039;50.000;9.064;2022-07-29T01:42:23;100162.31;;;22.04
73734;BMP280;62039;50.000;9.064;2022-07-29T01:44:57;100159.56;;;21.99
73734;BMP280;62039;50.000;9.064;2022-07-29T01:47:31;100154.16;;;21.94
73734;BMP280;62039;50.000;9.064;2022-07-29T01:50:05;100154.06;;;21.89
73734;BMP280;62039;50.000;9.064;2022-07-29T01:52:38;100155.56;;;21.85
73734;BMP280;62039;50.000;9.064;2022-07-29T01:55:11;100152.59;;;21.81
73734;BMP280;62039;50.000;9.064;2022-07-29T01:57:41;100148.00;;;21.77
73734;BMP280;62039;50.000;9.064;2022-07-29T02:00:11;100149.50;;;21.73
73734;BMP280;62039;50.000;9.064;2022-07-29T02:02:39;100143.88;;;21.69
73734;BMP280;62039;50.000;9.064;2022-07-29T02:05:11;100146.97;;;21.66
73734;BMP280;62039;50.000;9.064;2022-07-29T02:07:40;100141.09;;;21.64
73734;BMP280;62039;50.000;9.064;2022-07-29T02:10:09;100138.69;;;21.63
73734;BMP280;62039;50.000;9.064;2022-07-29T02:12:37;100132.81;;;21.61
73734;BMP280;62039;50.000;9.064;2022-07-29T02:15:06;100128.53;;;21.60
73734;BMP280;62039;50.000;9.064;2022-07-29T02:17:41;100123.44;;;21.58
73734;BMP280;62039;50.000;9.064;2022-07-29T02:20:09;100126.59;;;21.55
73734;BMP280;62039;50.000;9.064;2022-07-29T02:22:38;100125.78;;;21.54
73734;BMP280;62039;50.000;9.064;2022-07-29T02:25:07;100127.84;;;21.52
73734;BMP280;62039;50.000;9.064;2022-07-29T02:27:40;100135.25;;;21.50
73734;BMP280;62039;50.000;9.064;2022-07-29T02:30:08;100133.88;;;21.48
73734;BMP280;62039;50.000;9.064;2022-07-29T02:32:35;100144.97;;;21.45
73734;BMP280;62039;50.000;9.064;2022-07-29T02:35:08;100143.84;;;21.41
73734;BMP280;62039;50.000;9.064;2022-07-29T02:37:36;100134.72;;;21.37
73734;BMP280;62039;50.000;9.064;2022-07-29T02:40:04;100135.22;;;21.34
73734;BMP280;62039;50.000;9.064;2022-07-29T02:42:33;100136.44;;;21.31
73734;BMP280;62039;50.000;9.064;2022-07-29T02:45:00;100143.06;;;21.29
73734;BMP280;62039;50.000;9.064;2022-07-29T02:47:31;100128.97;;;21.28
73734;BMP280;62039;50.000;9.064;2022-07-29T02:50:12;100124.34;;;21.24
73734;BMP280;62039;50.000;9.064;2022-07-29T02:52:43;100121.94;;;21.22
73734;BMP280;62039;50.000;9.064;2022-07-29T02:55:15;100117.88;;;21.20
73734;BMP280;62039;50.000;9.064;2022-07-29T02:57:44;100119.75;;;21.19
73734;BMP280;62039;50.000;9.064;2022-07-29T03:00:21;100118.59;;;21.15
73734;BMP280;62039;50.000;9.064;2022-07-29T03:02:51;100125.75;;;21.14
73734;BMP280;62039;50.000;9.064;2022-07-29T03:05:20;100113.75;;;21.12
73734;BMP280;62039;50.000;9.064;2022-07-29T03:07:52;100119.28;;;21.10
73734;BMP280;62039;50.000;9.064;2022-07-29T03:10:20;100122.19;;;21.09
73734;BMP280;62039;50.000;9.064;2022-07-29T03:12:47;100120.00;;;21.06
73734;BMP280;62039;50.000;9.064;2022-07-29T03:15:14;100119.41;;;21.04
73734;BMP280;62039;50.000;9.064;2022-07-29T03:17:41;100124.19;;;21.02
73734;BMP280;62039;50.000;9.064;2022-07-29T03:20:09;100122.56;;;21.01
73734;BMP280;62039;50.000;9.064;2022-07-29T03:22:40;100127.28;;;20.99
73734;BMP280;62039;50.000;9.064;2022-07-29T03:25:08;100130.44;;;20.96
73734;BMP280;62039;50.000;9.064;2022-07-29T03:27:35;100117.59;;;20.93
73734;BMP280;62039;50.000;9.064;2022-07-29T03:30:01;100118.88;;;20.90
73734;BMP280;62039;50.000;9.064;2022-07-29T03:32:28;100114.84;;;20.88
73734;BMP280;62039;50.000;9.064;2022-07-29T03:34:55;100117.72;;;20.86
73734;BMP280;62039;50.000;9.064;2022-07-29T03:37:22;100112.06;;;20.83
73734;BMP280;62039;50.000;9.064;2022-07-29T03:39:51;100109.66;;;20.81
73734;BMP280;62039;50.000;9.064;2022-07-29T03:42:19;100113.81;;;20.77
73734;BMP280;62039;50.000;9.064;2022-07-29T03:44:48;100109.78;;;20.74
73734;BMP280;62039;50.000;9.064;2022-07-29T03:47:17;100110.22;;;20.71
73734;BMP280;62039;50.000;9.064;2022-07-29T03:49:48;100109.06;;;20.67
73734;BMP280;62039;50.000;9.064;2022-07-29T03:52:16;100106.88;;;20.64
73734;BMP280;62039;50.000;9.064;2022-07-29T03:54:44;100110.00;;;20.61
73734;BMP280;62039;50.000;9.064;2022-07-29T03:57:13;100102.25;;;20.60
73734;BMP280;62039;50.000;9.064;2022-07-29T03:59:41;100096.59;;;20.56
73734;BMP280;62039;50.000;9.064;2022-07-29T04:02:09;100095.22;;;20.54
73734;BMP280;62039;50.000;9.064;2022-07-29T04:04:37;100104.44;;;20.51
73734;BMP280;62039;50.000;9.064;2022-07-29T04:07:04;100100.44;;;20.49
73734;BMP280;62039;50.000;9.064;2022-07-29T04:09:31;100104.34;;;20.46
73734;BMP280;62039;50.000;9.064;2022-07-29T04:11:57;100102.13;;;20.43
73734;BMP280;62039;50.000;9.064;2022-07-29T04:14:31;100098.13;;;20.41
73734;BMP280;62039;50.000;9.064;2022-07-29T04:16:58;100092.44;;;20.37
73734;BMP280;62039;50.000;9.064;2022-07-29T04:19:25;100097.75;;;20.37
73734;BMP280;62039;50.000;9.064;2022-07-29T04:21:51;100094.53;;;20.35
73734;BMP280;62039;50.000;9.064;2022-07-29T04:24:18;100092.94;;;20.34
73734;BMP280;62039;50.000;9.064;2022-07-29T04:26:46;100110.91;;;20.32
73734;BMP280;62039;50.000;9.064;2022-07-29T04:29:13;100110.56;;;20.28
73734;BMP280;62039;50.000;9.064;2022-07-29T04:31:41;100117.94;;;20.26
73734;BMP280;62039;50.000;9.064;2022-07-29T04:34:08;100121.63;;;20.25
73734;BMP280;62039;50.000;9.064;2022-07-29T04:36:35;100113.88;;;20.24
73734;BMP280;62039;50.000;9.064;2022-07-29T04:39:02;100112.25;;;20.23
73734;BMP280;62039;50.000;9.064;2022-07-29T04:41:29;100113.31;;;20.22
73734;BMP280;62039;50.000;9.064;2022-07-29T04:43:59;100103.75;;;20.21
73734;BMP280;62039;50.000;9.064;2022-07-29T04:46:27;100113.31;;;20.22
73734;BMP280;62039;50.000;9.064;2022-07-29T04:48:55;100110.09;;;20.20
73734;BMP280;62039;50.000;9.064;2022-07-29T04:51:21;100111.13;;;20.19
73734;BMP280;62039;50.000;9.064;2022-07-29T04:53:48;100111.13;;;20.19
73734;BMP280;62039;50.000;9.064;2022-07-29T04:56:15;100110.31;;;20.18
73734;BMP280;62039;50.000;9.064;2022-07-29T04:58:41;100103.16;;;20.19
73734;BMP280;62039;50.000;9.064;2022-07-29T05:01:08;100111.13;;;20.19
73734;BMP280;62039;50.000;9.064;2022-07-29T05:03:34;100108.47;;;20.19
73734;BMP280;62039;50.000;9.064;2022-07-29T05:06:02;100109.28;;;20.19
73734;BMP280;62039;50.000;9.064;2022-07-29T05:08:29;100113.78;;;20.19
73734;BMP280;62039;50.000;9.064;2022-07-29T05:10:56;100112.75;;;20.20
73734;BMP280;62039;50.000;9.064;2022-07-29T05:13:22;100116.41;;;20.19
73734;BMP280;62039;50.000;9.064;2022-07-29T05:15:49;100112.75;;;20.20
73734;BMP280;62039;50.000;9.064;2022-07-29T05:18:15;100113.56;;;20.20
73734;BMP280;62039;50.000;9.064;2022-07-29T05:20:42;100112.75;;;20.20
73734;BMP280;62039;50.000;9.064;2022-07-29T05:23:10;100111.72;;;20.21
73734;BMP280;62039;50.000;9.064;2022-07-29T05:25:37;100113.56;;;20.20
73734;BMP280;62039;50.000;9.064;2022-07-29T05:28:10;100118.03;;;20.20
73734;BMP280;62039;50.000;9.064;2022-07-29T05:30:36;100115.38;;;20.20
73734;BMP280;62039;50.000;9.064;2022-07-29T05:33:03;100120.47;;;20.21
73734;BMP280;62039;50.000;9.064;2022-07-29T05:35:30;100120.69;;;20.20
73734;BMP280;62039;50.000;9.064;2022-07-29T05:37:56;100124.97;;;20.21
73734;BMP280;62039;50.000;9.064;2022-07-29T05:40:24;100126.81;;;20.20
73734;BMP280;62039;50.000;9.064;2022-07-29T05:42:51;100123.34;;;20.20
73734;BMP280;62039;50.000;9.064;2022-07-29T05:45:17;100129.47;;;20.20
73734;BMP280;62039;50.000;9.064;2022-07-29T05:47:44;100133.94;;;20.20
73734;BMP280;62039;50.000;9.064;2022-07-29T05:50:10;100141.91;;;20.20
73734;BMP280;62039;50.000;9.064;2022-07-29T05:52:37;100128.66;;;20.20
73734;BMP280;62039;50.000;9.064;2022-07-29T05:55:04;100138.78;;;20.23
73734;BMP280;62039;50.000;9.064;2022-07-29T05:57:32;100135.91;;;20.24
73734;BMP280;62039;50.000;9.064;2022-07-29T05:59:59;100132.81;;;20.27
73734;BMP280;62039;50.000;9.064;2022-07-29T06:02:25;100135.81;;;20.31
73734;BMP280;62039;50.000;9.064;2022-07-29T06:04:52;100143.88;;;20.36
73734;BMP280;62039;50.000;9.064;2022-07-29T06:07:19;100146.91;;;20.40
73734;BMP280;62039;50.000;9.064;2022-07-29T06:09:45;100143.53;;;20.44
73734;BMP280;62039;50.000;9.064;2022-07-29T06:12:12;100144.94;;;20.47
73734;BMP280;62039;50.000;9.064;2022-07-29T06:14:40;100152.19;;;20.51
73734;BMP280;62039;50.000;9.064;2022-07-29T06:17:06;100147.25;;;20.55
73734;BMP280;62039;50.000;9.064;2022-07-29T06:19:34;100151.06;;;20.59
73734;BMP280;62039;50.000;9.064;2022-07-29T06:22:01;100150.34;;;20.63
73734;BMP280;62039;50.000;9.064;2022-07-29T06:24:27;100145.19;;;20.68
73734;BMP280;62039;50.000;9.064;2022-07-29T06:26:54;100146.94;;;20.74
73734;BMP280;62039;50.000;9.064;2022-07-29T06:29:20;100143.59;;;20.79
73734;BMP280;62039;50.000;9.064;2022-07-29T06:31:48;100142.66;;;20.85
73734;BMP280;62039;50.000;9.064;2022-07-29T06:34:15;100142.53;;;20.92
73734;BMP280;62039;50.000;9.064;2022-07-29T06:36:43;100148.06;;;21.02
73734;BMP280;62039;50.000;9.064;2022-07-29T06:39:11;100142.97;;;21.12
73734;BMP280;62039;50.000;9.064;2022-07-29T06:41:37;100144.00;;;21.23
73734;BMP280;62039;50.000;9.064;2022-07-29T06:44:04;100137.03;;;21.33
73734;BMP280;62039;50.000;9.064;2022-07-29T06:46:31;100142.56;;;21.43
73734;BMP280;62039;50.000;9.064;2022-07-29T06:48:59;100149.69;;;21.54
73734;BMP280;62039;50.000;9.064;2022-07-29T06:51:25;100152.06;;;21.68
73734;BMP280;62039;50.000;9.064;2022-07-29T06:53:52;100151.53;;;21.82
73734;BMP280;62039;50.000;9.064;2022-07-29T06:56:26;100149.97;;;21.98
73734;BMP280;62039;50.000;9.064;2022-07-29T06:58:52;100141.44;;;22.13
73734;BMP280;62039;50.000;9.064;2022-07-29T07:01:19;100148.88;;;22.27
73734;BMP280;62039;50.000;9.064;2022-07-29T07:03:47;100150.75;;;22.44
73734;BMP280;62039;50.000;9.064;2022-07-29T07:06:15;100140.91;;;22.61
73734;BMP280;62039;50.000;9.064;2022-07-29T07:08:41;100145.41;;;22.77
73734;BMP280;62039;50.000;9.064;2022-07-29T07:11:08;100146.97;;;22.95
73734;BMP280;62039;50.000;9.064;2022-07-29T07:13:35;100144.31;;;23.12
73734;BMP280;62039;50.000;9.064;2022-07-29T07:16:02;100150.59;;;23.27
73734;BMP280;62039;50.000;9.064;2022-07-29T07:18:29;100144.41;;;23.43
73734;BMP280;62039;50.000;9.064;2022-07-29T07:20:57;100148.38;;;23.63
73734;BMP280;62039;50.000;9.064;2022-07-29T07:23:25;100148.81;;;23.81
73734;BMP280;62039;50.000;9.064;2022-07-29T07:25:52;100145.53;;;24.01
73734;BMP280;62039;50.000;9.064;2022-07-29T07:28:19;100154.53;;;24.22
73734;BMP280;62039;50.000;9.064;2022-07-29T07:30:50;100147.50;;;24.43
73734;BMP280;62039;50.000;9.064;2022-07-29T07:33:17;100146.81;;;24.62
73734;BMP280;62039;50.000;9.064;2022-07-29T07:35:43;100147.50;;;24.80
73734;BMP280;62039;50.000;9.064;2022-07-29T07:38:10;100146.50;;;24.96
73734;BMP280;62039;50.000;9.064;2022-07-29T07:40:38;100149.25;;;25.11
73734;BMP280;62039;50.000;9.064;2022-07-29T07:43:05;100150.16;;;25.27
73734;BMP280;62039;50.000;9.064;2022-07-29T07:45:31;100143.78;;;25.43
73734;BMP280;62039;50.000;9.064;2022-07-29T07:47:58;100148.38;;;25.63
73734;BMP280;62039;50.000;9.064;2022-07-29T07:50:25;100143.34;;;25.81
73734;BMP280;62039;50.000;9.064;2022-07-29T07:52:53;100154.34;;;26.00
73734;BMP280;62039;50.000;9.064;2022-07-29T07:55:20;100152.75;;;26.14
73734;BMP280;62039;50.000;9.064;2022-07-29T07:57:48;100151.69;;;26.31
73734;BMP280;62039;50.000;9.064;2022-07-29T08:00:16;100147.13;;;26.46
73734;BMP280;62039;50.000;9.064;2022-07-29T08:02:44;100150.56;;;26.62
73734;BMP280;62039;50.000;9.064;2022-07-29T08:05:11;100143.59;;;26.76
73734;BMP280;62039;50.000;9.064;2022-07-29T08:07:38;100138.22;;;26.86
73734;BMP280;62039;50.000;9.064;2022-07-29T08:10:05;100141.94;;;26.95
73734;BMP280;62039;50.000;9.064;2022-07-29T08:12:32;100146.72;;;27.04
73734;BMP280;62039;50.000;9.064;2022-07-29T08:15:00;100144.28;;;27.12
73734;BMP280;62039;50.000;9.064;2022-07-29T08:17:27;100137.31;;;27.21
73734;BMP280;62039;50.000;9.064;2022-07-29T08:19:53;100145.28;;;27.31
73734;BMP280;62039;50.000;9.064;2022-07-29T08:22:20;100139.06;;;27.41
73734;BMP280;62039;50.000;9.064;2022-07-29T08:24:46;100144.38;;;27.51
73734;BMP280;62039;50.000;9.064;2022-07-29T08:27:13;100141.06;;;27.64
73734;BMP280;62039;50.000;9.064;2022-07-29T08:30:01;100134.03;;;27.79
73734;BMP280;62039;50.000;9.064;2022-07-29T08:32:28;100143.03;;;27.93
73734;BMP280;62039;50.000;9.064;2022-07-29T08:35:14;100137.03;;;28.06
73734;BMP280;62039;50.000;9.064;2022-07-29T08:37:41;100140.16;;;28.18
73734;BMP280;62039;50.000;9.064;2022-07-29T08:40:08;100141.16;;;28.27
73734;BMP280;62039;50.000;9.064;2022-07-29T08:42:35;100142.72;;;28.33
73734;BMP280;62039;50.000;9.064;2022-07-29T08:45:04;100142.63;;;28.43
73734;BMP280;62039;50.000;9.064;2022-07-29T08:47:31;100139.38;;;28.46
73734;BMP280;62039;50.000;9.064;2022-07-29T08:49:57;100138.81;;;28.49
73734;BMP280;62039;50.000;9.064;2022-07-29T08:52:25;100137.69;;;28.56
73734;BMP280;62039;50.000;9.064;2022-07-29T08:54:53;100142.44;;;28.64
73734;BMP280;62039;50.000;9.064;2022-07-29T08:57:21;100138.03;;;28.73
73734;BMP280;62039;50.000;9.064;2022-07-29T08:59:50;100136.84;;;28.84
73734;BMP280;62039;50.000;9.064;2022-07-29T09:02:21;100138.41;;;28.90
73734;BMP280;62039;50.000;9.064;2022-07-29T09:04:49;100138.84;;;28.97
73734;BMP280;62039;50.000;9.064;2022-07-29T09:07:17;100139.78;;;29.06
73734;BMP280;62039;50.000;9.064;2022-07-29T09:09:44;100127.88;;;29.17
73734;BMP280;62039;50.000;9.064;2022-07-29T09:12:11;100124.47;;;29.31
73734;BMP280;62039;50.000;9.064;2022-07-29T09:14:54;100136.50;;;29.52
73734;BMP280;62039;50.000;9.064;2022-07-29T09:17:43;100130.00;;;29.77
73734;BMP280;62039;50.000;9.064;2022-07-29T09:20:12;100131.47;;;30.01
73734;BMP280;62039;50.000;9.064;2022-07-29T09:22:39;100129.44;;;30.26
73734;BMP280;62039;50.000;9.064;2022-07-29T09:25:08;100125.81;;;30.49
73734;BMP280;62039;50.000;9.064;2022-07-29T09:27:35;100118.53;;;30.63
73734;BMP280;62039;50.000;9.064;2022-07-29T09:30:03;100118.25;;;30.78
73734;BMP280;62039;50.000;9.064;2022-07-29T09:32:30;100121.75;;;30.93
73734;BMP280;62039;50.000;9.064;2022-07-29T09:35:19;100117.75;;;31.04
73734;BMP280;62039;50.000;9.064;2022-07-29T09:37:46;100105.16;;;31.13
73734;BMP280;62039;50.000;9.064;2022-07-29T09:40:15;100099.63;;;31.18
73734;BMP280;62039;50.000;9.064;2022-07-29T09:42:42;100105.72;;;31.23
73734;BMP280;62039;50.000;9.064;2022-07-29T09:45:10;100102.59;;;31.30
73734;BMP280;62039;50.000;9.064;2022-07-29T09:47:44;100099.22;;;31.38
73734;BMP280;62039;50.000;9.064;2022-07-29T09:50:11;100113.97;;;31.41
73734;BMP280;62039;50.000;9.064;2022-07-29T09:52:47;100098.72;;;31.36
73734;BMP280;62039;50.000;9.064;2022-07-29T09:55:14;100097.19;;;31.30
73734;BMP280;62039;50.000;9.064;2022-07-29T09:57:46;100092.41;;;31.27
73734;BMP280;62039;50.000;9.064;2022-07-29T10:00:14;100100.81;;;31.26
73734;BMP280;62039;50.000;9.064;2022-07-29T10:02:43;100100.81;;;31.26
73734;BMP280;62039;50.000;9.064;2022-07-29T10:05:18;100094.81;;;31.29
73734;BMP280;62039;50.000;9.064;2022-07-29T10:07:48;100096.59;;;31.33
73734;BMP280;62039;50.000;9.064;2022-07-29T10:10:21;100091.97;;;31.34
73734;BMP280;62039;50.000;9.064;2022-07-29T10:12:49;100089.63;;;31.32
73734;BMP280;62039;50.000;9.064;2022-07-29T10:15:16;100085.31;;;31.31
73734;BMP280;62039;50.000;9.064;2022-07-29T10:17:44;100091.97;;;31.34
73734;BMP280;62039;50.000;9.064;2022-07-29T10:20:10;100085.22;;;31.36
73734;BMP280;62039;50.000;9.064;2022-07-29T10:22:42;100085.09;;;31.41
73734;BMP280;62039;50.000;9.064;2022-07-29T10:25:20;100080.41;;;31.47
73734;BMP280;62039;50.000;9.064;2022-07-29T10:27:48;100082.34;;;31.55
73734;BMP280;62039;50.000;9.064;2022-07-29T10:30:15;100079.72;;;31.64
73734;BMP280;62039;50.000;9.064;2022-07-29T10:32:52;100082.63;;;31.76
73734;BMP280;62039;50.000;9.064;2022-07-29T10:35:44;100084.25;;;31.77
73734;BMP280;62039;50.000;9.064;2022-07-29T10:38:27;100078.84;;;31.77
73734;BMP280;62039;50.000;9.064;2022-07-29T10:41:10;100078.44;;;31.83
73734;BMP280;62039;50.000;9.064;2022-07-29T10:43:46;100075.50;;;31.93
73734;BMP280;62039;50.000;9.064;2022-07-29T10:46:16;100073.47;;;32.08
73734;BMP280;62039;50.000;9.064;2022-07-29T10:49:06;100074.50;;;32.20
73734;BMP280;62039;50.000;9.064;2022-07-29T10:54:42;100079.22;;;32.46
73734;BMP280;62039;50.000;9.064;2022-07-29T10:57:29;100079.44;;;32.58
73734;BMP280;62039;50.000;9.064;2022-07-29T11:00:30;100071.53;;;32.70
73734;BMP280;62039;50.000;9.064;2022-07-29T11:02:57;100072.03;;;32.81
73734;BMP280;62039;50.000;9.064;2022-07-29T11:05:24;100065.06;;;32.88
73734;BMP280;62039;50.000;9.064;2022-07-29T11:08:24;100065.22;;;32.92
73734;BMP280;62039;50.000;9.064;2022-07-29T11:13:56;100061.72;;;33.00
73734;BMP280;62039;50.000;9.064;2022-07-29T11:16:23;100060.75;;;32.96
73734;BMP280;62039;50.000;9.064;2022-07-29T11:19:19;100060.13;;;32.99
73734;BMP280;62039;50.000;9.064;2022-07-29T11:21:55;100052.00;;;32.99
73734;BMP280;62039;50.000;9.064;2022-07-29T11:24:25;100048.84;;;33.05
73734;BMP280;62039;50.000;9.064;2022-07-29T11:27:15;100048.25;;;33.08
73734;BMP280;62039;50.000;9.064;2022-07-29T11:29:52;100053.31;;;33.19
73734;BMP280;62039;50.000;9.064;2022-07-29T11:32:21;100055.06;;;33.32
73734;BMP280;62039;50.000;9.064;2022-07-29T11:35:16;100049.69;;;33.49
73734;BMP280;62039;50.000;9.064;2022-07-29T11:37:45;100052.16;;;33.71
73734;BMP280;62039;50.000;9.064;2022-07-29T11:40:31;100050.53;;;33.96
73734;BMP280;62039;50.000;9.064;2022-07-29T11:42:58;100047.25;;;34.20
73734;BMP280;62039;50.000;9.064;2022-07-29T11:45:27;100045.41;;;34.41
73734;BMP280;62039;50.000;9.064;2022-07-29T11:48:18;100033.66;;;34.58
73734;BMP280;62039;50.000;9.064;2022-07-29T11:50:56;100038.53;;;34.73
73734;BMP280;62039;50.000;9.064;2022-07-29T11:53:24;100031.75;;;34.88
73734;BMP280;62039;50.000;9.064;2022-07-29T11:55:55;100037.38;;;35.03
73734;BMP280;62039;50.000;9.064;2022-07-29T11:58:24;100028.97;;;35.17
73734;BMP280;62039;50.000;9.064;2022-07-29T12:00:53;100023.25;;;35.31
73734;BMP280;62039;50.000;9.064;2022-07-29T12:03:24;100023.63;;;35.41
73734;BMP280;62039;50.000;9.064;2022-07-29T12:06:12;100015.72;;;35.49
73734;BMP280;62039;50.000;9.064;2022-07-29T12:08:41;100008.81;;;35.51
73734;BMP280;62039;50.000;9.064;2022-07-29T12:11:15;100006.25;;;35.55
73734;BMP280;62039;50.000;9.064;2022-07-29T12:13:41;100002.88;;;35.58
73734;BMP280;62039;50.000;9.064;2022-07-29T12:16:09;100000.38;;;35.65
73734;BMP280;62039;50.000;9.064;2022-07-29T12:18:40;99993.63;;;35.71
73734;BMP280;62039;50.000;9.064;2022-07-29T12:21:06;99994.19;;;35.76
73734;BMP280;62039;50.000;9.064;2022-07-29T12:23:33;99999.72;;;35.80
73734;BMP280;62039;50.000;9.064;2022-07-29T12:26:04;100002.59;;;35.83
73734;BMP280;62039;50.000;9.064;2022-07-29T12:28:36;100007.00;;;35.88
73734;BMP280;62039;50.000;9.064;2022-07-29T12:31:03;100001.47;;;35.97
73734;BMP280;62039;50.000;9.064;2022-07-29T12:33:32;100002.50;;;36.04
73734;BMP280;62039;50.000;9.064;2022-07-29T12:36:00;99997.31;;;36.11
73734;BMP280;62039;50.000;9.064;2022-07-29T12:38:43;99994.59;;;36.11
73734;BMP280;62039;50.000;9.064;2022-07-29T12:41:10;99988.34;;;36.11
73734;BMP280;62039;50.000;9.064;2022-07-29T12:43:36;99991.88;;;36.11
73734;BMP280;62039;50.000;9.064;2022-07-29T12:46:12;99987.78;;;36.17
73734;BMP280;62039;50.000;9.064;2022-07-29T12:48:41;99978.25;;;36.23
73734;BMP280;62039;50.000;9.064;2022-07-29T12:51:09;99981.41;;;36.26
73734;BMP280;62039;50.000;9.064;2022-07-29T12:53:36;99972.81;;;36.23
73734;BMP280;62039;50.000;9.064;2022-07-29T12:56:04;99971.91;;;36.19
73734;BMP280;62039;50.000;9.064;2022-07-29T12:58:46;99967.84;;;36.13
73734;BMP280;62039;50.000;9.064;2022-07-29T13:01:18;99961.50;;;36.09
73734;BMP280;62039;50.000;9.064;2022-07-29T13:03:49;99962.19;;;36.06
73734;BMP280;62039;50.000;9.064;2022-07-29T13:06:34;99963.53;;;36.00
73734;BMP280;62039;50.000;9.064;2022-07-29T13:09:09;99956.75;;;35.94
73734;BMP280;62039;50.000;9.064;2022-07-29T13:11:37;99962.53;;;35.93
73734;BMP280;62039;50.000;9.064;2022-07-29T13:14:04;99957.75;;;35.90
73734;BMP280;62039;50.000;9.064;2022-07-29T13:16:32;99961.94;;;35.87
73734;BMP280;62039;50.000;9.064;2022-07-29T13:19:05;99963.75;;;35.83
73734;BMP280;62039;50.000;9.064;2022-07-29T13:21:32;99956.50;;;35.75
73734;BMP280;62039;50.000;9.064;2022-07-29T13:23:59;99948.59;;;35.70
73734;BMP280;62039;50.000;9.064;2022-07-29T13:26:25;99943.81;;;35.67
73734;BMP280;62039;50.000;9.064;2022-07-29T13:28:52;99950.38;;;35.66
73734;BMP280;62039;50.000;9.064;2022-07-29T13:31:18;99953.78;;;35.63
73734;BMP280;62039;50.000;9.064;2022-07-29T13:33:45;99950.50;;;35.57
73734;BMP280;62039;50.000;9.064;2022-07-29T13:36:13;99952.63;;;35.52
73734;BMP280;62039;50.000;9.064;2022-07-29T13:38:40;99952.34;;;35.44
73734;BMP280;62039;50.000;9.064;2022-07-29T13:41:06;99948.75;;;35.40
73734;BMP280;62039;50.000;9.064;2022-07-29T13:43:33;99946.81;;;35.41
73734;BMP280;62039;50.000;9.064;2022-07-29T13:45:59;99940.13;;;35.38
73734;BMP280;62039;50.000;9.064;2022-07-29T13:48:26;99939.69;;;35.36
73734;BMP280;62039;50.000;9.064;2022-07-29T13:50:53;99940.56;;;35.28
73734;BMP280;62039;50.000;9.064;2022-07-29T13:53:20;99942.34;;;35.12
73734;BMP280;62039;50.000;9.064;2022-07-29T13:55:52;99942.69;;;34.90
73734;BMP280;62039;50.000;9.064;2022-07-29T13:58:19;99942.53;;;34.65
73734;BMP280;62039;50.000;9.064;2022-07-29T14:00:45;99944.00;;;34.42
73734;BMP280;62039;50.000;9.064;2022-07-29T14:03:12;99942.97;;;34.26
73734;BMP280;62039;50.000;9.064;2022-07-29T14:05:38;99944.31;;;34.11
73734;BMP280;62039;50.000;9.064;2022-07-29T14:08:05;99941.53;;;33.99
73734;BMP280;62039;50.000;9.064;2022-07-29T14:10:33;99942.41;;;33.82
73734;BMP280;62039;50.000;9.064;2022-07-29T14:13:00;99946.09;;;33.69
73734;BMP280;62039;50.000;9.064;2022-07-29T14:15:26;99944.38;;;33.56
73734;BMP280;62039;50.000;9.064;2022-07-29T14:17:53;99946.94;;;33.44
73734;BMP280;62039;50.000;9.064;2022-07-29T14:20:19;99951.13;;;33.33